Time;durP1;ratioP1;P1;durP2;ratioP2;P2;SDS_P1;SDS_P2;PMS_P1;PMS_P2;Temp;Humidity;BMP_temperature;BMP_pressure;BME280_temperature;BME280_humidity;BME280_pressure;Samples;Min_cycle;Max_cycle;Signal;HPM_P1;HPM_P2
2022/01/23 00:00:04;;;;;;;33.30;15.75;;;3.60;74.60;;;;;;5152629;27;46487;-64
2022/01/23 00:02:33;;;;;;;32.38;16.05;;;3.60;74.50;;;;;;5149379;27;46203;-64
2022/01/23 00:05:05;;;;;;;30.83;15.30;;;3.60;74.30;;;;;;5150665;27;46382;-65
2022/01/23 00:07:32;;;;;;;36.78;16.70;;;3.70;74.40;;;;;;5152920;27;46695;-65
2022/01/23 00:09:58;;;;;;;33.03;15.57;;;3.70;74.30;;;;;;5151370;27;46506;-65
2022/01/23 00:12:26;;;;;;;33.47;15.90;;;3.70;74.30;;;;;;5150944;27;46602;-65
2022/01/23 00:17:36;;;;;;;28.92;15.07;;;3.70;74.20;;;;;;5153377;27;45852;-62
2022/01/23 00:20:07;;;;;;;38.60;15.93;;;3.80;74.20;;;;;;5151913;27;46340;-64
2022/01/23 00:22:42;;;;;;;28.10;14.40;;;3.70;74.20;;;;;;5153078;27;46417;-65
2022/01/23 00:30:40;;;;;;;30.40;14.50;;;3.60;75.00;;;;;;5153308;27;46780;-65
2022/01/23 00:33:06;;;;;;;30.65;15.18;;;3.50;75.20;;;;;;5150188;27;46515;-65
2022/01/23 00:35:34;;;;;;;36.78;15.18;;;3.50;75.00;;;;;;5152955;27;46662;-64
2022/01/23 00:38:02;;;;;;;34.42;14.80;;;3.50;75.10;;;;;;5151641;27;46425;-65
2022/01/23 00:40:30;;;;;;;37.65;15.25;;;3.40;75.20;;;;;;5153248;27;46398;-63
2022/01/23 00:42:58;;;;;;;29.63;15.48;;;3.50;75.10;;;;;;5151134;27;46434;-65
2022/01/23 00:45:33;;;;;;;34.20;15.70;;;3.60;74.70;;;;;;5152091;27;46380;-65
2022/01/23 00:48:02;;;;;;;29.10;15.43;;;3.60;74.30;;;;;;5153575;27;46470;-63
2022/01/23 00:50:30;;;;;;;37.50;17.55;;;3.60;74.20;;;;;;5151482;27;46471;-65
2022/01/23 00:52:59;;;;;;;27.40;15.90;;;3.60;74.20;;;;;;5155771;27;47140;-65
2022/01/23 00:55:24;;;;;;;40.13;17.35;;;3.70;74.50;;;;;;5151362;27;46445;-65
2022/01/23 00:57:50;;;;;;;31.00;15.90;;;3.60;74.60;;;;;;5153430;27;46420;-64
2022/01/23 01:00:16;;;;;;;34.77;15.17;;;3.60;74.50;;;;;;5151209;27;46461;-64
2022/01/23 01:02:42;;;;;;;29.53;14.83;;;3.70;74.40;;;;;;5151420;27;46670;-64
2022/01/23 01:05:08;;;;;;;33.83;15.83;;;3.70;74.30;;;;;;5150433;27;46347;-65
2022/01/23 01:07:34;;;;;;;31.17;15.13;;;3.60;74.50;;;;;;5150499;27;46283;-65
2022/01/23 01:10:06;;;;;;;28.80;15.83;;;3.70;74.40;;;;;;5151962;27;46603;-65
2022/01/23 01:12:41;;;;;;;31.27;16.17;;;3.70;74.40;;;;;;5148047;27;46953;-64
2022/01/23 01:31:29;;;;;;;34.28;15.00;;;3.80;74.10;;;;;;5148236;27;46299;-64
2022/01/23 01:38:53;;;;;;;28.55;14.98;;;3.70;74.20;;;;;;5151157;27;46352;-64
2022/01/23 01:41:20;;;;;;;32.93;15.27;;;3.70;74.10;;;;;;5150680;27;46471;-64
2022/01/23 01:43:50;;;;;;;31.77;14.40;;;3.80;74.30;;;;;;5146787;27;46210;-64
2022/01/23 01:46:16;;;;;;;26.10;13.00;;;3.70;74.30;;;;;;5148072;27;46134;-65
2022/01/23 01:48:42;;;;;;;27.43;13.63;;;3.70;74.20;;;;;;5151493;27;46327;-63
2022/01/23 01:51:13;;;;;;;26.03;13.93;;;3.70;74.30;;;;;;5157083;27;46467;-65
2022/01/23 01:53:39;;;;;;;26.55;14.40;;;3.70;74.30;;;;;;5153559;27;47025;-65
2022/01/23 01:56:07;;;;;;;30.77;14.60;;;3.70;74.30;;;;;;5147517;27;46690;-65
2022/01/23 01:58:56;;;;;;;22.90;12.38;;;3.70;74.50;;;;;;5150085;27;46416;-66
2022/01/23 02:09:19;;;;;;;23.33;12.43;;;3.70;74.60;;;;;;5155347;27;46378;-65
2022/01/23 02:14:41;;;;;;;26.60;12.60;;;3.60;74.50;;;;;;5151923;27;46317;-64
2022/01/23 02:17:38;;;;;;;22.40;12.20;;;3.70;75.80;;;;;;5154559;27;46402;-64
2022/01/23 02:23:03;;;;;;;24.02;12.20;;;3.70;74.30;;;;;;5153873;27;46490;-64
2022/01/23 02:55:46;;;;;;;17.10;9.57;;;3.70;74.20;;;;;;5150144;27;46330;-65
2022/01/23 02:58:15;;;;;;;15.23;9.20;;;3.70;74.10;;;;;;5152670;27;46371;-65
2022/01/23 03:01:07;;;;;;;15.20;9.00;;;3.80;74.00;;;;;;5154304;27;46479;-65
2022/01/23 03:03:37;;;;;;;15.27;9.65;;;3.80;74.00;;;;;;5151814;27;46460;-64
2022/01/23 03:25:34;;;;;;;18.45;9.40;;;3.50;74.40;;;;;;5151385;27;46436;-64
2022/01/23 03:30:52;;;;;;;16.23;9.32;;;3.60;73.90;;;;;;5150994;27;46308;-65
2022/01/23 03:33:20;;;;;;;15.45;9.10;;;3.70;73.60;;;;;;5150577;27;46427;-64
2022/01/23 03:35:46;;;;;;;18.70;8.90;;;3.70;73.80;;;;;;5156569;27;46344;-65
2022/01/23 03:38:14;;;;;;;18.40;9.10;;;3.70;73.80;;;;;;5154335;27;46373;-65
2022/01/23 03:40:40;;;;;;;13.93;9.00;;;3.70;73.90;;;;;;5153881;27;47190;-64
2022/01/23 03:43:11;;;;;;;14.30;8.00;;;3.70;73.90;;;;;;5149344;27;46339;-62
2022/01/23 03:50:37;;;;;;;15.88;7.88;;;3.70;74.00;;;;;;5152749;27;46386;-64
2022/01/23 03:53:03;;;;;;;12.40;7.63;;;3.70;73.90;;;;;;5152468;27;46387;-64
2022/01/23 03:55:28;;;;;;;22.60;8.57;;;3.80;73.90;;;;;;5155670;27;46552;-64
2022/01/23 03:57:54;;;;;;;12.20;7.73;;;3.70;73.70;;;;;;5155051;27;46369;-64
2022/01/23 04:00:20;;;;;;;14.27;7.93;;;3.80;73.80;;;;;;5156333;27;47007;-65
2022/01/23 04:02:45;;;;;;;12.30;7.40;;;3.90;73.90;;;;;;5151304;27;46450;-64
2022/01/23 04:05:11;;;;;;;15.20;8.73;;;3.80;73.70;;;;;;5152559;27;46364;-64
2022/01/23 04:07:37;;;;;;;12.73;8.37;;;3.80;73.80;;;;;;5151530;27;46494;-64
2022/01/23 04:10:04;;;;;;;12.00;7.37;;;3.80;73.80;;;;;;5151840;27;46433;-63
2022/01/23 05:01:14;;;;;;;14.20;8.00;;;3.70;73.60;;;;;;5152498;27;46266;-65
2022/01/23 05:06:27;;;;;;;13.57;8.45;;;3.70;73.70;;;;;;5156131;27;46349;-64
2022/01/23 05:08:56;;;;;;;13.15;7.78;;;3.80;73.60;;;;;;5158452;27;46278;-64
2022/01/23 05:11:23;;;;;;;12.80;7.97;;;3.80;73.60;;;;;;5156226;27;46297;-64
2022/01/23 05:13:49;;;;;;;13.00;7.43;;;3.80;73.50;;;;;;5150826;27;46420;-64
2022/01/23 05:16:15;;;;;;;13.53;8.20;;;3.80;73.50;;;;;;5151685;27;46398;-65
2022/01/23 05:18:40;;;;;;;13.00;7.13;;;3.80;73.30;;;;;;5154497;27;46374;-64
2022/01/23 05:23:55;;;;;;;13.13;7.43;;;3.90;73.40;;;;;;5159409;27;46673;-65
2022/01/23 05:26:21;;;;;;;15.85;8.38;;;3.90;73.40;;;;;;5158430;27;46375;-64
2022/01/23 05:28:47;;;;;;;10.83;7.37;;;3.90;72.80;;;;;;5155810;27;46403;-66
2022/01/23 05:31:12;;;;;;;12.20;8.10;;;3.90;72.70;;;;;;5155278;27;46434;-64
2022/01/23 05:33:38;;;;;;;13.70;7.30;;;3.90;72.70;;;;;;5156259;27;46407;-64
2022/01/23 05:36:05;;;;;;;15.30;7.33;;;3.90;72.70;;;;;;5156978;27;46285;-64
2022/01/23 05:38:31;;;;;;;14.48;7.43;;;3.90;72.70;;;;;;5156851;27;46540;-64
2022/01/23 05:40:58;;;;;;;13.40;8.07;;;3.90;72.70;;;;;;5159209;27;46535;-64
2022/01/23 05:43:24;;;;;;;15.75;7.50;;;3.80;72.60;;;;;;5157774;27;46614;-63
2022/01/23 05:45:53;;;;;;;15.07;7.20;;;3.70;74.20;;;;;;5152324;27;46209;-64
2022/01/23 05:48:19;;;;;;;13.07;7.25;;;3.70;73.40;;;;;;5151946;27;46356;-64
2022/01/23 05:50:46;;;;;;;16.10;7.47;;;3.70;73.60;;;;;;5153872;27;46525;-65
2022/01/23 05:53:11;;;;;;;14.27;7.55;;;3.70;73.50;;;;;;5157473;27;46418;-64
2022/01/23 05:55:40;;;;;;;14.43;8.63;;;3.80;73.80;;;;;;5159839;27;46397;-63
2022/01/23 05:58:05;;;;;;;14.35;7.70;;;3.70;73.60;;;;;;5162222;27;46371;-64
2022/01/23 06:00:31;;;;;;;13.60;7.60;;;3.80;73.80;;;;;;5162987;27;46590;-64
2022/01/23 06:03:00;;;;;;;14.10;7.80;;;3.70;73.80;;;;;;5161494;27;47074;-64
2022/01/23 06:05:25;;;;;;;14.73;8.20;;;3.70;73.70;;;;;;5156012;27;46425;-64
2022/01/23 06:07:51;;;;;;;13.50;8.00;;;3.70;73.70;;;;;;5152861;27;45929;-64
2022/01/23 06:10:27;;;;;;;15.60;8.63;;;3.70;73.70;;;;;;5154136;27;46300;-64
2022/01/23 06:12:52;;;;;;;12.57;8.00;;;3.70;73.70;;;;;;5152359;27;46400;-64
2022/01/23 06:15:18;;;;;;;11.97;7.80;;;3.70;73.80;;;;;;5156219;27;46464;-64
2022/01/23 06:17:44;;;;;;;17.60;8.40;;;3.60;74.00;;;;;;5158228;27;46376;-65
2022/01/23 06:20:14;;;;;;;13.77;8.00;;;3.60;74.20;;;;;;5151140;27;46330;-65
2022/01/23 06:22:42;;;;;;;15.52;8.13;;;3.60;74.10;;;;;;5155411;27;46262;-64
2022/01/23 06:25:10;;;;;;;15.27;7.65;;;3.60;74.00;;;;;;5157208;27;46457;-65
2022/01/23 06:27:35;;;;;;;13.60;8.13;;;3.70;73.90;;;;;;5154435;27;45794;-64
2022/01/23 06:30:01;;;;;;;13.20;7.30;;;3.70;73.90;;;;;;5157594;27;46291;-64
2022/01/23 06:32:30;;;;;;;14.97;8.30;;;3.70;74.00;;;;;;5156997;27;47077;-64
2022/01/23 06:34:56;;;;;;;13.68;8.13;;;3.70;73.90;;;;;;5155436;27;46444;-63
2022/01/23 06:37:21;;;;;;;12.50;7.10;;;3.70;73.80;;;;;;5153322;27;46361;-65
2022/01/23 06:39:51;;;;;;;13.10;8.37;;;3.70;73.70;;;;;;5154773;27;46566;-64
2022/01/23 06:42:17;;;;;;;12.18;7.97;;;3.70;73.70;;;;;;5152961;27;46342;-64
2022/01/23 06:44:45;;;;;;;14.27;9.13;;;3.70;73.80;;;;;;5153026;27;46463;-63
2022/01/23 06:47:13;;;;;;;16.00;8.90;;;3.70;73.80;;;;;;5153934;27;46371;-64
2022/01/23 06:49:39;;;;;;;14.38;9.27;;;3.70;73.60;;;;;;5154395;27;46614;-64
2022/01/23 06:52:05;;;;;;;13.33;9.00;;;3.70;74.00;;;;;;5152287;27;46404;-64
2022/01/23 06:54:30;;;;;;;14.13;8.50;;;3.70;74.00;;;;;;5151669;27;46258;-65
2022/01/23 06:56:59;;;;;;;15.00;8.10;;;3.70;73.90;;;;;;5153338;27;46299;-64
2022/01/23 06:59:24;;;;;;;13.18;7.80;;;3.70;74.00;;;;;;5155659;27;46497;-64
2022/01/23 07:01:50;;;;;;;13.90;8.23;;;3.70;74.00;;;;;;5155404;27;46427;-64
2022/01/23 07:04:15;;;;;;;12.53;8.10;;;3.70;73.80;;;;;;5155425;27;45818;-64
2022/01/23 07:06:41;;;;;;;16.37;10.63;;;3.70;73.90;;;;;;5153998;27;46474;-63
2022/01/23 07:09:07;;;;;;;16.90;10.60;;;3.70;73.80;;;;;;5154111;27;46458;-64
2022/01/23 07:11:34;;;;;;;16.30;9.17;;;3.80;73.70;;;;;;5154666;27;46671;-64
2022/01/23 07:14:00;;;;;;;12.95;8.00;;;3.80;73.80;;;;;;5149802;27;46289;-64
2022/01/23 07:16:26;;;;;;;15.87;8.93;;;3.80;73.50;;;;;;5153703;27;46402;-63
2022/01/23 07:18:51;;;;;;;13.10;8.27;;;3.70;73.50;;;;;;5153322;27;46282;-63
2022/01/23 07:21:17;;;;;;;14.37;9.87;;;3.80;73.70;;;;;;5152052;27;46541;-64
2022/01/23 07:23:49;;;;;;;12.70;8.37;;;3.80;73.50;;;;;;5152857;27;46273;-63
2022/01/23 07:26:16;;;;;;;15.65;8.68;;;3.80;73.40;;;;;;5149642;27;46615;-64
2022/01/23 07:28:43;;;;;;;13.65;8.68;;;3.90;73.50;;;;;;5152403;27;46627;-65
2022/01/23 07:31:10;;;;;;;14.73;8.45;;;3.90;73.30;;;;;;5150358;27;47153;-64
2022/01/23 07:33:36;;;;;;;12.98;8.48;;;3.90;73.30;;;;;;5151315;27;46626;-64
2022/01/23 07:36:05;;;;;;;14.90;9.90;;;3.90;72.90;;;;;;5153419;27;46340;-63
2022/01/23 07:38:31;;;;;;;14.90;9.50;;;3.90;72.70;;;;;;5153210;27;46368;-63
2022/01/23 07:40:57;;;;;;;14.90;8.70;;;4.00;73.70;;;;;;5155338;27;46892;-64
2022/01/23 07:43:23;;;;;;;12.40;8.50;;;4.00;73.60;;;;;;5153488;27;46310;-64
2022/01/23 07:45:48;;;;;;;16.83;9.03;;;4.10;73.50;;;;;;5149251;27;46357;-65
2022/01/23 07:48:16;;;;;;;13.30;8.07;;;4.10;73.40;;;;;;5150492;27;46505;-65
2022/01/23 07:50:42;;;;;;;12.82;7.65;;;4.10;73.30;;;;;;5151094;27;47398;-66
2022/01/23 07:53:07;;;;;;;14.20;8.70;;;4.10;73.20;;;;;;5149151;27;46415;-63
2022/01/23 07:55:34;;;;;;;13.37;8.30;;;4.30;73.20;;;;;;5152333;27;46486;-64
2022/01/23 07:58:05;;;;;;;14.20;8.45;;;4.30;73.00;;;;;;5155710;27;45894;-64
2022/01/23 08:00:33;;;;;;;14.43;8.55;;;4.30;73.10;;;;;;5155204;27;46257;-64
2022/01/23 08:02:58;;;;;;;15.80;7.43;;;4.40;73.10;;;;;;5152256;27;46584;-64
2022/01/23 08:05:24;;;;;;;13.07;8.37;;;4.40;73.20;;;;;;5150791;27;46368;-64
2022/01/23 08:07:50;;;;;;;16.30;8.30;;;4.50;73.20;;;;;;5153134;27;46280;-64
2022/01/23 08:10:16;;;;;;;14.00;7.83;;;4.50;73.20;;;;;;5148597;27;46278;-65
2022/01/23 08:12:42;;;;;;;12.60;7.93;;;4.50;73.20;;;;;;5148928;27;46111;-63
2022/01/23 08:15:08;;;;;;;12.20;7.85;;;4.60;73.30;;;;;;5151533;27;46251;-64
2022/01/23 08:17:34;;;;;;;13.17;8.33;;;4.60;73.30;;;;;;5152174;27;45977;-65
2022/01/23 08:20:02;;;;;;;11.87;8.10;;;4.70;73.40;;;;;;5151809;27;46273;-63
2022/01/23 08:22:30;;;;;;;15.00;7.85;;;4.80;73.50;;;;;;5152746;27;46397;-65
2022/01/23 08:24:57;;;;;;;12.82;8.57;;;4.80;73.50;;;;;;5152902;27;46462;-65
2022/01/23 08:27:24;;;;;;;11.93;8.43;;;4.80;73.30;;;;;;5158771;27;46324;-64
2022/01/23 08:29:52;;;;;;;14.53;8.43;;;4.90;73.50;;;;;;5152709;27;47140;-65
2022/01/23 08:32:18;;;;;;;11.50;7.53;;;5.00;73.20;;;;;;5153142;27;45865;-64
2022/01/23 08:34:44;;;;;;;14.63;8.37;;;5.00;73.00;;;;;;5151394;27;46507;-64
2022/01/23 08:37:10;;;;;;;14.03;8.53;;;5.10;72.90;;;;;;5151843;27;46602;-64
2022/01/23 08:39:37;;;;;;;14.90;10.30;;;5.10;72.70;;;;;;5149233;27;47180;-64
2022/01/23 08:42:21;;;;;;;17.02;11.15;;;5.20;72.70;;;;;;5150022;27;46350;-62
2022/01/23 08:44:48;;;;;;;16.85;10.90;;;5.30;72.30;;;;;;5150272;27;46418;-62
2022/01/23 08:47:18;;;;;;;19.90;12.17;;;5.30;72.10;;;;;;5150850;27;45867;-65
2022/01/23 08:49:47;;;;;;;17.70;10.90;;;5.50;71.60;;;;;;5155156;27;46462;-65
2022/01/23 08:52:17;;;;;;;14.10;9.43;;;5.50;71.20;;;;;;5157092;27;46521;-65
2022/01/23 08:54:50;;;;;;;19.57;13.20;;;5.50;71.10;;;;;;5153936;27;46474;-64
2022/01/23 08:57:17;;;;;;;28.80;18.67;;;5.50;71.10;;;;;;5160217;27;46364;-63
2022/01/23 08:59:43;;;;;;;23.27;15.20;;;5.60;71.00;;;;;;5155466;27;46479;-63
2022/01/23 09:02:11;;;;;;;15.23;10.70;;;5.70;70.50;;;;;;5152605;27;46407;-64
2022/01/23 09:04:40;;;;;;;18.20;10.90;;;5.80;71.30;;;;;;5152177;27;46333;-64
2022/01/23 09:07:05;;;;;;;17.30;11.07;;;5.90;70.00;;;;;;5152896;27;45872;-64
2022/01/23 09:09:36;;;;;;;27.50;16.63;;;5.80;70.00;;;;;;5154540;27;47021;-64
2022/01/23 09:12:07;;;;;;;21.93;13.60;;;5.80;70.10;;;;;;5152994;27;46003;-65
2022/01/23 09:14:33;;;;;;;24.30;13.30;;;5.90;70.30;;;;;;5154550;27;45904;-65
2022/01/23 09:17:00;;;;;;;22.53;14.50;;;5.90;70.10;;;;;;5152029;27;46546;-65
2022/01/23 09:19:26;;;;;;;30.60;16.70;;;6.00;70.00;;;;;;5148730;27;46446;-65
2022/01/23 09:21:53;;;;;;;19.98;11.73;;;6.00;70.00;;;;;;5146723;27;46395;-64
2022/01/23 09:24:23;;;;;;;17.97;11.20;;;6.10;70.00;;;;;;5150884;27;46191;-64
2022/01/23 09:27:01;;;;;;;18.40;9.73;;;6.20;70.00;;;;;;5151578;27;46626;-64
2022/01/23 09:31:56;;;;;;;18.93;12.23;;;6.40;69.90;;;;;;5155869;27;45839;-64
2022/01/23 09:34:27;;;;;;;22.20;13.80;;;6.40;69.60;;;;;;5154309;27;46690;-64
2022/01/23 09:36:55;;;;;;;26.53;17.00;;;6.50;69.40;;;;;;5154852;27;46404;-65
2022/01/23 09:39:22;;;;;;;23.10;13.63;;;6.60;69.40;;;;;;5156139;27;46419;-64
2022/01/23 09:41:54;;;;;;;19.27;14.00;;;6.60;69.30;;;;;;5154379;27;46562;-65
2022/01/23 09:44:20;;;;;;;19.33;13.80;;;6.70;69.20;;;;;;5152654;27;46520;-64
2022/01/23 09:46:47;;;;;;;17.30;11.10;;;6.70;68.60;;;;;;5154015;27;46399;-64
2022/01/23 09:49:15;;;;;;;17.07;10.57;;;6.80;68.00;;;;;;5157083;27;46335;-64
2022/01/23 09:51:43;;;;;;;18.07;10.03;;;6.80;67.90;;;;;;5153876;27;46293;-64
2022/01/23 09:54:13;;;;;;;18.63;11.50;;;6.90;67.90;;;;;;5150187;27;46376;-63
2022/01/23 09:56:43;;;;;;;16.87;11.00;;;6.90;67.60;;;;;;5160341;27;46256;-65
2022/01/23 09:59:15;;;;;;;17.60;10.70;;;7.00;67.60;;;;;;5149408;27;47306;-63
2022/01/23 10:01:42;;;;;;;20.70;10.77;;;7.00;67.40;;;;;;5156744;27;46322;-63
2022/01/23 10:04:12;;;;;;;21.80;11.60;;;7.00;67.50;;;;;;5154090;27;46391;-64
2022/01/23 10:06:37;;;;;;;18.53;11.43;;;7.10;67.60;;;;;;5150173;27;46601;-63
2022/01/23 10:09:06;;;;;;;17.13;10.37;;;7.10;67.60;;;;;;5147645;27;47262;-63
2022/01/23 10:11:37;;;;;;;15.93;11.13;;;7.20;67.50;;;;;;5151941;27;46452;-64
2022/01/23 10:14:03;;;;;;;16.97;10.23;;;7.30;67.30;;;;;;5149483;27;46454;-65
2022/01/23 10:16:35;;;;;;;14.27;9.40;;;7.30;67.40;;;;;;5149631;27;46547;-65
2022/01/23 10:19:03;;;;;;;17.50;10.80;;;7.20;67.90;;;;;;5148047;27;46397;-64
2022/01/23 10:21:31;;;;;;;16.83;10.60;;;7.20;67.20;;;;;;5153002;27;46553;-65
2022/01/23 10:24:00;;;;;;;19.23;10.40;;;7.30;67.20;;;;;;5148723;27;46350;-66
2022/01/23 10:26:48;;;;;;;16.30;10.00;;;7.30;67.20;;;;;;5152584;27;46392;-65
2022/01/23 10:29:22;;;;;;;16.20;9.70;;;7.30;66.90;;;;;;5158748;27;46427;-63
2022/01/23 10:32:01;;;;;;;19.40;10.97;;;7.30;67.10;;;;;;5160531;27;45987;-62
2022/01/23 10:34:57;;;;;;;16.57;10.03;;;7.30;67.00;;;;;;5150256;27;46265;-64
2022/01/23 10:37:43;;;;;;;20.33;11.27;;;7.30;66.90;;;;;;5153721;27;46308;-64
2022/01/23 10:40:09;;;;;;;18.17;10.80;;;7.40;66.90;;;;;;5152184;27;47244;-65
2022/01/23 10:48:27;;;;;;;16.87;10.10;;;7.20;67.00;;;;;;5153803;27;46330;-64
2022/01/23 10:51:27;;;;;;;18.97;11.50;;;7.20;66.60;;;;;;5149679;27;46370;-65
2022/01/23 10:53:57;;;;;;;20.20;12.43;;;7.20;66.40;;;;;;5158736;27;46438;-65
2022/01/23 10:56:26;;;;;;;18.30;11.30;;;7.30;66.10;;;;;;5154338;27;46287;-65
2022/01/23 10:59:06;;;;;;;18.50;10.90;;;7.30;66.30;;;;;;5156263;27;45995;-64
2022/01/23 11:01:31;;;;;;;17.50;10.53;;;7.40;65.80;;;;;;5156111;27;46408;-64
2022/01/23 11:04:04;;;;;;;17.80;11.93;;;7.50;65.50;;;;;;5156590;27;46338;-64
2022/01/23 11:06:50;;;;;;;19.90;12.20;;;7.60;65.20;;;;;;5151295;27;46312;-63
2022/01/23 11:09:15;;;;;;;18.40;10.93;;;7.70;64.90;;;;;;5156182;27;46433;-64
2022/01/23 11:11:45;;;;;;;20.43;11.60;;;7.80;64.60;;;;;;5154682;27;48141;-64
2022/01/23 11:19:46;;;;;;;17.77;11.50;;;8.00;63.60;;;;;;5157166;27;46372;-64
2022/01/23 11:22:34;;;;;;;16.97;10.93;;;8.10;63.80;;;;;;5152519;27;47062;-64
2022/01/23 11:25:08;;;;;;;15.30;10.53;;;8.10;63.80;;;;;;5147427;27;46402;-64
2022/01/23 11:27:39;;;;;;;18.97;12.40;;;8.00;63.70;;;;;;5155736;27;46361;-64
2022/01/23 11:30:07;;;;;;;21.07;12.23;;;7.70;64.20;;;;;;5154603;27;46574;-64
2022/01/23 11:32:38;;;;;;;17.90;11.57;;;7.70;64.40;;;;;;5154310;27;46343;-63
2022/01/23 11:35:09;;;;;;;18.73;11.60;;;7.40;64.80;;;;;;5153805;27;46395;-64
2022/01/23 11:37:44;;;;;;;21.77;13.10;;;7.50;64.40;;;;;;5154950;27;46363;-63
2022/01/23 11:40:27;;;;;;;18.17;11.43;;;7.50;64.10;;;;;;5156223;27;46362;-64
2022/01/23 11:54:05;;;;;;;20.80;12.63;;;7.90;62.80;;;;;;5116469;27;46982;-63
2022/01/23 11:56:37;;;;;;;21.80;13.63;;;7.90;63.00;;;;;;5160198;27;46438;-63
2022/01/23 11:59:28;;;;;;;19.30;12.13;;;7.90;62.90;;;;;;5162142;27;45865;-62
2022/01/23 12:02:36;;;;;;;16.57;11.20;;;7.90;62.60;;;;;;5153943;27;46285;-62
2022/01/23 12:05:16;;;;;;;19.60;11.30;;;8.00;62.60;;;;;;5158181;27;47140;-63
2022/01/23 12:08:03;;;;;;;18.67;12.23;;;8.00;62.70;;;;;;5155154;27;46445;-63
2022/01/23 12:10:48;;;;;;;22.90;13.30;;;8.00;62.70;;;;;;5156882;27;46359;-63
2022/01/23 12:16:33;;;;;;;20.20;12.20;;;7.80;63.10;;;;;;5140338;27;46125;-64
2022/01/23 12:19:18;;;;;;;26.17;13.73;;;7.80;62.90;;;;;;5149828;27;45849;-63
2022/01/23 12:21:45;;;;;;;17.93;11.40;;;7.80;62.70;;;;;;5150426;27;46487;-63
2022/01/23 12:24:14;;;;;;;23.37;12.60;;;7.50;63.20;;;;;;5150080;27;46252;-64
2022/01/23 12:26:42;;;;;;;19.77;13.23;;;7.50;63.20;;;;;;5155909;27;47045;-64
2022/01/23 12:29:12;;;;;;;20.90;12.43;;;7.50;64.40;;;;;;5156315;27;46341;-64
2022/01/23 12:31:41;;;;;;;22.77;13.40;;;7.40;63.20;;;;;;5162449;27;46375;-63
2022/01/23 12:34:07;;;;;;;19.63;12.53;;;7.20;63.30;;;;;;5149646;27;46347;-62
2022/01/23 12:36:37;;;;;;;24.50;13.10;;;7.00;63.70;;;;;;5153062;27;47186;-63
2022/01/23 12:39:09;;;;;;;24.90;13.87;;;6.80;63.80;;;;;;5146016;27;46322;-63
2022/01/23 12:41:52;;;;;;;22.17;13.83;;;6.50;64.20;;;;;;5154086;27;46363;-64
2022/01/23 12:44:23;;;;;;;24.50;13.80;;;6.30;64.60;;;;;;5155542;27;45782;-64
2022/01/23 12:46:52;;;;;;;22.53;14.83;;;6.20;64.70;;;;;;5153938;27;46304;-63
2022/01/23 12:49:46;;;;;;;23.97;13.67;;;6.10;64.80;;;;;;5154268;27;46607;-64
2022/01/23 12:52:16;;;;;;;24.83;14.80;;;6.00;64.80;;;;;;5155455;27;46420;-63
2022/01/23 12:54:47;;;;;;;23.57;14.40;;;5.60;65.40;;;;;;5149882;27;46426;-64
2022/01/23 12:57:23;;;;;;;24.70;14.20;;;5.10;66.60;;;;;;5156208;27;47205;-62
2022/01/23 12:59:56;;;;;;;27.93;14.80;;;4.80;67.60;;;;;;5152834;27;46406;-62
2022/01/23 13:02:29;;;;;;;28.20;16.53;;;4.60;67.90;;;;;;5152933;27;46446;-63
2022/01/23 13:04:56;;;;;;;26.80;16.23;;;4.50;68.00;;;;;;5155868;27;46381;-63
2022/01/23 13:10:28;;;;;;;22.30;12.93;;;4.40;68.10;;;;;;5147450;27;46435;-63
2022/01/23 13:13:23;;;;;;;22.80;14.03;;;4.40;68.00;;;;;;5151458;27;46154;-66
2022/01/23 13:15:58;;;;;;;24.73;13.37;;;4.70;67.90;;;;;;5150944;27;46458;-65
2022/01/23 13:32:19;;;;;;;22.57;13.37;;;4.90;67.60;;;;;;5153580;27;46660;-63
2022/01/23 13:34:52;;;;;;;20.70;13.10;;;4.80;67.70;;;;;;5152012;27;46351;-66
2022/01/23 13:37:21;;;;;;;23.23;13.40;;;4.80;67.70;;;;;;5153024;27;46492;-62
2022/01/23 13:39:58;;;;;;;24.80;14.30;;;4.90;67.80;;;;;;5151977;27;48021;-64
2022/01/23 13:42:48;;;;;;;21.98;12.70;;;4.80;67.90;;;;;;5151532;27;46344;-63
2022/01/23 13:51:37;;;;;;;25.33;14.20;;;4.80;67.90;;;;;;5150635;27;46443;-62
2022/01/23 14:02:34;;;;;;;22.20;12.80;;;4.80;68.30;;;;;;5150643;27;46301;-64
2022/01/23 14:05:03;;;;;;;22.75;13.05;;;4.80;68.30;;;;;;5150907;27;46655;-65
2022/01/23 14:07:29;;;;;;;22.90;13.30;;;4.90;68.20;;;;;;5152430;27;46475;-64
2022/01/23 14:09:58;;;;;;;24.10;12.80;;;4.90;68.10;;;;;;5150497;27;46379;-63
2022/01/23 14:12:25;;;;;;;21.23;12.50;;;4.90;68.20;;;;;;5153222;27;46502;-63
2022/01/23 14:14:57;;;;;;;21.33;12.30;;;5.00;68.10;;;;;;5157679;27;46377;-62
2022/01/23 14:17:35;;;;;;;19.37;11.43;;;4.90;68.10;;;;;;5153230;27;46439;-63
2022/01/23 14:20:04;;;;;;;20.13;11.30;;;4.80;68.30;;;;;;5150549;27;46437;-62
2022/01/23 14:22:32;;;;;;;21.00;11.70;;;4.80;68.60;;;;;;5149539;27;46304;-65
2022/01/23 14:25:12;;;;;;;23.83;14.27;;;4.80;68.40;;;;;;5152987;27;46522;-63
2022/01/23 14:27:40;;;;;;;21.33;12.53;;;4.90;68.30;;;;;;5155994;27;46588;-64
2022/01/23 14:30:14;;;;;;;20.10;11.80;;;4.80;68.30;;;;;;5152762;27;46537;-64
2022/01/23 14:32:49;;;;;;;20.10;12.30;;;4.80;68.30;;;;;;5150815;27;46439;-63
2022/01/23 14:35:18;;;;;;;21.23;10.70;;;4.80;68.40;;;;;;5152013;27;46507;-63
2022/01/23 14:37:46;;;;;;;17.33;11.60;;;4.70;68.30;;;;;;5149577;27;46432;-63
2022/01/23 14:40:18;;;;;;;19.00;12.10;;;4.70;68.40;;;;;;5160374;27;47057;-64
2022/01/23 14:42:56;;;;;;;18.00;11.30;;;4.60;68.70;;;;;;5149135;27;46349;-64
2022/01/23 14:45:23;;;;;;;19.27;11.40;;;4.50;68.90;;;;;;5159292;27;46455;-61
2022/01/23 14:47:49;;;;;;;20.77;11.60;;;4.40;69.00;;;;;;5156954;27;46429;-63
2022/01/23 14:50:18;;;;;;;19.90;12.50;;;4.40;69.10;;;;;;5155506;27;46323;-64
2022/01/23 14:52:45;;;;;;;20.27;12.03;;;4.40;69.30;;;;;;5155946;27;46272;-64
2022/01/23 14:55:11;;;;;;;22.17;12.55;;;4.40;69.40;;;;;;5157250;27;46621;-64
2022/01/23 14:57:39;;;;;;;20.20;11.37;;;4.30;69.50;;;;;;5160149;27;46293;-64
2022/01/23 15:00:07;;;;;;;17.60;11.07;;;4.30;69.60;;;;;;5163793;27;46350;-64
2022/01/23 15:02:32;;;;;;;18.63;11.80;;;4.30;69.80;;;;;;5155408;27;46290;-64
2022/01/23 15:05:02;;;;;;;18.60;10.27;;;4.20;70.00;;;;;;5154164;27;46716;-63
2022/01/23 15:07:36;;;;;;;21.83;11.60;;;4.10;70.20;;;;;;5156811;27;46431;-63
2022/01/23 15:10:04;;;;;;;16.70;10.03;;;4.20;70.20;;;;;;5155533;27;46400;-63
2022/01/23 15:12:29;;;;;;;18.67;10.50;;;4.20;70.10;;;;;;5152425;27;47030;-64
2022/01/23 15:14:55;;;;;;;19.77;11.47;;;4.10;70.00;;;;;;5154244;27;46364;-64
2022/01/23 15:17:21;;;;;;;19.97;10.50;;;4.10;70.00;;;;;;5157288;27;46413;-63
2022/01/23 15:19:47;;;;;;;18.90;11.97;;;4.10;70.60;;;;;;5154139;27;45968;-63
2022/01/23 15:22:13;;;;;;;18.33;10.88;;;4.00;70.00;;;;;;5156542;27;47065;-64
2022/01/23 15:24:39;;;;;;;17.47;10.50;;;4.00;70.30;;;;;;5155077;27;46409;-64
2022/01/23 15:27:05;;;;;;;20.53;10.87;;;4.00;70.50;;;;;;5156066;27;46450;-61
2022/01/23 15:29:31;;;;;;;19.20;10.60;;;3.90;70.30;;;;;;5158994;27;46612;-62
2022/01/23 15:31:56;;;;;;;20.10;11.50;;;3.90;70.40;;;;;;5160175;27;46415;-61
2022/01/23 15:34:22;;;;;;;20.03;11.20;;;3.80;70.50;;;;;;5158513;27;46655;-64
2022/01/23 15:36:50;;;;;;;32.27;13.70;;;3.80;70.50;;;;;;5152544;27;46372;-61
2022/01/23 15:39:16;;;;;;;41.83;19.63;;;3.70;70.60;;;;;;5153989;27;46690;-62
2022/01/23 15:41:42;;;;;;;46.60;22.00;;;3.60;70.80;;;;;;5154876;27;47275;-62
2022/01/23 15:44:07;;;;;;;47.70;19.93;;;3.60;71.00;;;;;;5155501;27;46460;-61
2022/01/23 15:46:34;;;;;;;51.10;22.10;;;3.50;71.00;;;;;;5158179;27;46421;-62
2022/01/23 15:49:00;;;;;;;50.73;25.30;;;3.50;71.00;;;;;;5161483;27;46343;-61
2022/01/23 15:51:26;;;;;;;38.23;20.37;;;3.40;70.90;;;;;;5155108;27;46459;-62
2022/01/23 15:53:51;;;;;;;26.37;14.37;;;3.40;71.10;;;;;;5149235;27;46432;-62
2022/01/23 15:56:17;;;;;;;28.10;16.10;;;3.30;71.00;;;;;;5149473;27;46281;-62
2022/01/23 15:58:43;;;;;;;33.20;17.90;;;3.20;71.00;;;;;;5155645;27;46443;-63
2022/01/23 16:01:08;;;;;;;42.93;25.80;;;3.20;71.40;;;;;;5152435;27;46337;-62
2022/01/23 16:03:34;;;;;;;42.47;23.80;;;3.10;71.70;;;;;;5156122;27;46518;-64
2022/01/23 16:06:00;;;;;;;62.60;34.63;;;3.00;71.90;;;;;;5159707;27;46372;-63
2022/01/23 16:08:26;;;;;;;78.10;43.07;;;3.00;71.90;;;;;;5155861;27;46491;-63
2022/01/23 16:10:52;;;;;;;119.72;60.40;;;2.90;71.80;;;;;;5158887;27;47293;-63
2022/01/23 16:13:18;;;;;;;112.07;56.20;;;2.80;71.70;;;;;;5163400;27;46240;-62
2022/01/23 16:15:44;;;;;;;77.35;43.65;;;2.70;71.70;;;;;;5152519;27;46540;-62
2022/01/23 16:18:11;;;;;;;64.23;36.10;;;2.60;71.60;;;;;;5157573;27;46480;-62
2022/01/23 16:20:38;;;;;;;58.90;32.22;;;2.60;71.60;;;;;;5156379;27;46426;-64
2022/01/23 16:23:04;;;;;;;60.60;30.55;;;2.50;71.50;;;;;;5160929;27;46283;-60
2022/01/23 16:25:30;;;;;;;50.35;28.10;;;2.50;71.50;;;;;;5149705;27;46369;-62